createdAt,value
2019-06-08T00:01:14.499Z,59.60
2019-06-08T00:03:46.045Z,57.62
2019-06-08T00:06:18.839Z,65.42
2019-06-08T00:08:50.418Z,61.53
2019-06-08T00:11:23.264Z,63.63
2019-06-08T00:13:55.219Z,67.75
2019-06-08T00:16:26.588Z,62.95
2019-06-08T00:18:58.170Z,59.55
2019-06-08T00:21:29.473Z,57.70
2019-06-08T00:24:01.048Z,48.10
2019-06-08T00:26:32.523Z,42.78
2019-06-08T00:29:03.881Z,42.35
2019-06-08T00:31:35.457Z,45.78
2019-06-08T00:34:07.052Z,47.70
2019-06-08T00:36:38.685Z,48.75
2019-06-08T00:39:10.629Z,52.93
2019-06-08T00:41:42.102Z,52.73
2019-06-08T00:44:13.550Z,52.55
2019-06-08T00:46:44.938Z,59.20
2019-06-08T00:49:16.482Z,76.50
2019-06-08T00:51:47.708Z,63.17
2019-06-08T00:54:19.554Z,62.50
2019-06-08T00:56:50.981Z,70.90
2019-06-08T00:59:22.590Z,86.17
2019-06-08T01:01:53.937Z,83.40
2019-06-08T01:04:26.932Z,98.40
2019-06-08T01:06:58.521Z,85.70
2019-06-08T01:09:31.203Z,87.17
2019-06-08T01:12:03.238Z,79.47
2019-06-08T01:14:34.647Z,72.47
2019-06-08T01:17:06.072Z,72.15
2019-06-08T01:19:37.384Z,73.92
2019-06-08T01:22:08.839Z,90.77
2019-06-08T01:24:40.234Z,74.47
2019-06-08T01:27:11.707Z,74.37
2019-06-08T01:29:43.063Z,87.92
2019-06-08T01:32:14.526Z,98.65
2019-06-08T01:34:45.902Z,102.87
2019-06-08T01:37:17.198Z,57.78
2019-06-08T01:39:48.583Z,105.63
2019-06-08T01:42:21.350Z,67.90
2019-06-08T01:44:52.965Z,87.90
2019-06-08T01:47:24.652Z,156.93
2019-06-08T01:49:56.421Z,54.77
2019-06-08T01:52:28.868Z,52.00
2019-06-08T01:55:00.236Z,132.47
2019-06-08T01:57:31.751Z,81.25
2019-06-08T02:00:28.718Z,116.55
2019-06-08T02:02:37.348Z,53.87
2019-06-08T02:05:09.550Z,49.10
2019-06-08T02:07:42.047Z,56.05
2019-06-08T02:10:15.302Z,60.20
2019-06-08T02:12:46.690Z,62.20
2019-06-08T02:15:19.119Z,69.87
2019-06-08T02:17:50.559Z,70.70
2019-06-08T02:20:22.137Z,64.80
2019-06-08T02:22:54.279Z,63.42
2019-06-08T02:25:29.430Z,73.62
2019-06-08T02:28:00.945Z,67.78
2019-06-08T02:30:36.116Z,55.67
2019-06-08T02:33:06.078Z,49.20
2019-06-08T02:35:37.953Z,56.65
2019-06-08T02:38:09.398Z,44.67
2019-06-08T02:40:40.841Z,46.25
2019-06-08T02:43:12.509Z,39.53
2019-06-08T02:45:44.048Z,42.00
2019-06-08T02:48:15.452Z,43.65
2019-06-08T02:50:55.492Z,38.95
2019-06-08T02:53:29.456Z,42.80
2019-06-08T02:56:02.596Z,39.70
2019-06-08T02:58:36.944Z,35.55
2019-06-08T03:01:09.585Z,42.08
2019-06-08T03:03:42.056Z,35.80
2019-06-08T03:06:15.723Z,37.75
2019-06-08T03:08:49.677Z,27.40
2019-06-08T03:11:21.891Z,31.10
2019-06-08T03:13:56.194Z,38.88
2019-06-08T03:16:27.646Z,44.40
2019-06-08T03:18:59.090Z,38.23
2019-06-08T03:21:31.405Z,33.48
2019-06-08T03:24:02.981Z,27.80
2019-06-08T03:26:34.399Z,29.50
2019-06-08T03:29:06.146Z,28.27
2019-06-08T03:31:45.783Z,24.43
2019-06-08T03:34:10.582Z,23.38
2019-06-08T03:36:53.813Z,20.15
2019-06-08T03:39:15.049Z,27.62
2019-06-08T03:41:46.504Z,25.70
2019-06-08T03:44:18.045Z,30.40
2019-06-08T03:46:49.469Z,29.37
2019-06-08T03:49:37.085Z,38.15
2019-06-08T03:51:53.995Z,33.95
2019-06-08T03:54:25.398Z,30.65
2019-06-08T03:56:56.761Z,32.15
2019-06-08T03:59:28.179Z,31.73
2019-06-08T04:01:59.576Z,26.90
2019-06-08T04:04:31.053Z,21.42
2019-06-08T04:07:02.503Z,19.85
2019-06-08T04:09:33.944Z,21.37
2019-06-08T04:12:06.567Z,18.42
2019-06-08T04:14:38.006Z,20.57
2019-06-08T04:17:10.845Z,20.05
2019-06-08T04:20:05.430Z,20.95
2019-06-08T04:22:15.577Z,20.32
2019-06-08T04:24:46.886Z,16.93
2019-06-08T04:27:18.389Z,17.77
2019-06-08T04:29:50.229Z,18.17
2019-06-08T04:32:21.714Z,18.42
2019-06-08T04:34:53.099Z,17.20
2019-06-08T04:37:24.394Z,16.42
2019-06-08T04:39:55.808Z,13.80
2019-06-08T04:42:27.336Z,13.78
2019-06-08T04:44:58.679Z,11.38
2019-06-08T04:47:30.180Z,11.97
2019-06-08T04:50:20.310Z,11.40
2019-06-08T04:52:34.577Z,12.78
2019-06-08T04:55:07.064Z,11.93
2019-06-08T04:57:39.398Z,10.85
2019-06-08T05:00:13.082Z,12.33
2019-06-08T05:02:46.998Z,12.73
2019-06-08T05:05:17.983Z,12.45
2019-06-08T05:07:50.340Z,11.85
2019-06-08T05:10:23.008Z,12.25
2019-06-08T05:12:54.429Z,11.38
2019-06-08T05:15:25.759Z,11.88
2019-06-08T05:17:57.213Z,16.05
2019-06-08T05:20:38.530Z,16.60
2019-06-08T05:23:01.644Z,16.25
2019-06-08T05:25:33.159Z,15.18
2019-06-08T05:28:04.626Z,15.23
2019-06-08T05:30:36.008Z,15.80
2019-06-08T05:33:07.426Z,14.55
2019-06-08T05:35:39.404Z,15.50
2019-06-08T05:38:10.826Z,15.25
2019-06-08T05:40:43.511Z,16.70
2019-06-08T05:43:15.083Z,16.17
2019-06-08T05:45:48.327Z,20.97
2019-06-08T05:48:19.564Z,25.65
2019-06-08T05:51:03.086Z,23.00
2019-06-08T05:53:24.093Z,20.82
2019-06-08T05:55:55.474Z,23.00
2019-06-08T05:58:27.117Z,25.25
2019-06-08T06:00:58.402Z,21.27
2019-06-08T06:03:29.750Z,23.40
2019-06-08T06:06:01.147Z,25.23
2019-06-08T06:08:32.462Z,23.70
2019-06-08T06:11:03.887Z,25.88
2019-06-08T06:13:35.234Z,24.92
2019-06-08T06:16:06.666Z,23.67
2019-06-08T06:18:38.184Z,22.27
2019-06-08T06:21:11.644Z,23.92
2019-06-08T06:23:43.151Z,21.90
2019-06-08T06:26:14.641Z,20.95
2019-06-08T06:28:46.034Z,26.05
2019-06-08T06:31:17.510Z,21.85
2019-06-08T06:33:50.052Z,23.57
2019-06-08T06:36:21.499Z,23.52
2019-06-08T06:38:53.091Z,26.20
2019-06-08T06:41:24.459Z,25.52
2019-06-08T06:43:55.958Z,25.57
2019-06-08T06:46:27.403Z,23.00
2019-06-08T06:48:59.067Z,24.87
2019-06-08T06:51:30.376Z,21.12
2019-06-08T06:54:01.818Z,22.48
2019-06-08T06:56:33.067Z,21.17
2019-06-08T06:59:04.660Z,23.15
2019-06-08T07:01:36.046Z,23.73
2019-06-08T07:04:07.473Z,22.37
2019-06-08T07:06:38.879Z,23.38
2019-06-08T07:09:10.357Z,20.00
2019-06-08T07:11:41.736Z,22.42
2019-06-08T07:14:13.248Z,23.02
2019-06-08T07:16:45.750Z,18.45
2019-06-08T07:19:17.331Z,23.10
2019-06-08T07:21:48.779Z,22.37
2019-06-08T07:24:20.239Z,21.33
2019-06-08T07:26:52.464Z,20.17
2019-06-08T07:29:24.766Z,18.32
2019-06-08T07:31:56.117Z,20.80
2019-06-08T07:34:27.562Z,21.42
2019-06-08T07:36:59.598Z,21.00
2019-06-08T07:39:30.959Z,22.90
2019-06-08T07:42:02.319Z,23.25
2019-06-08T07:44:33.680Z,25.57
2019-06-08T07:47:05.113Z,37.13
2019-06-08T07:49:36.545Z,30.32
2019-06-08T07:52:10.638Z,39.90
2019-06-08T07:54:40.786Z,22.48
2019-06-08T07:57:12.142Z,17.07
2019-06-08T07:59:43.449Z,18.25
2019-06-08T08:02:14.734Z,21.00
2019-06-08T08:04:46.168Z,19.90
2019-06-08T08:07:17.517Z,24.72
2019-06-08T08:09:48.924Z,21.33
2019-06-08T08:12:20.272Z,22.95
2019-06-08T08:14:53.173Z,23.73
2019-06-08T08:17:24.772Z,23.92
2019-06-08T08:19:57.310Z,22.07
2019-06-08T08:22:29.616Z,21.77
2019-06-08T08:25:04.645Z,22.90
2019-06-08T08:27:34.253Z,19.60
2019-06-08T08:30:08.175Z,20.20
2019-06-08T08:32:38.928Z,18.73
2019-06-08T08:35:10.475Z,21.12
2019-06-08T08:37:41.863Z,23.18
2019-06-08T08:40:13.457Z,20.55
2019-06-08T08:42:44.758Z,23.05
2019-06-08T08:45:18.287Z,21.10
2019-06-08T08:47:50.753Z,20.95
2019-06-08T08:50:22.565Z,19.62
2019-06-08T08:52:54.199Z,22.15
2019-06-08T08:55:27.855Z,22.00
2019-06-08T08:57:59.441Z,22.77
2019-06-08T09:00:31.893Z,20.82
2019-06-08T09:03:22.056Z,25.32
2019-06-08T09:05:38.169Z,26.55
2019-06-08T09:08:10.589Z,24.40
2019-06-08T09:10:43.127Z,23.77
2019-06-08T09:13:14.474Z,23.40
2019-06-08T09:15:47.866Z,23.32
2019-06-08T09:18:19.773Z,23.92
2019-06-08T09:20:52.346Z,20.65
2019-06-08T09:23:24.075Z,23.90
2019-06-08T09:26:03.953Z,23.52
2019-06-08T09:28:29.282Z,23.65
2019-06-08T09:31:02.792Z,19.55
2019-06-08T09:33:33.592Z,23.67
2019-06-08T09:36:05.762Z,24.65
2019-06-08T09:38:38.684Z,22.37
2019-06-08T09:41:10.125Z,23.57
2019-06-08T09:43:41.510Z,24.77
2019-06-08T09:46:12.934Z,23.40
2019-06-08T09:48:44.277Z,20.90
2019-06-08T09:51:16.633Z,22.93
2019-06-08T09:53:48.675Z,24.35
2019-06-08T09:56:20.300Z,26.02
2019-06-08T09:58:51.675Z,25.35
2019-06-08T10:01:23.011Z,28.70
2019-06-08T10:03:54.472Z,29.77
2019-06-08T10:06:26.285Z,29.23
2019-06-08T10:08:58.526Z,27.07
2019-06-08T10:11:29.905Z,27.90
2019-06-08T10:14:03.715Z,24.85
2019-06-08T10:16:34.258Z,25.57
2019-06-08T10:19:07.986Z,24.40
2019-06-08T10:21:42.738Z,29.12
2019-06-08T10:24:11.892Z,25.12
2019-06-08T10:26:43.409Z,21.35
2019-06-08T10:29:14.993Z,23.90
2019-06-08T10:31:48.359Z,26.42
2019-06-08T10:34:19.482Z,24.35
2019-06-08T10:36:50.865Z,24.45
2019-06-08T10:39:22.248Z,25.95
2019-06-08T10:41:53.742Z,22.58
2019-06-08T10:44:25.208Z,21.40
2019-06-08T10:46:58.981Z,20.17
2019-06-08T10:49:29.635Z,19.40
2019-06-08T10:52:03.467Z,18.62
2019-06-08T10:54:34.061Z,15.63
2019-06-08T10:57:07.448Z,17.57
2019-06-08T10:59:40.220Z,11.55
2019-06-08T11:02:13.991Z,12.50
2019-06-08T11:04:44.514Z,12.03
2019-06-08T11:07:16.572Z,15.13
2019-06-08T11:09:50.732Z,11.50
2019-06-08T11:12:22.243Z,14.60
2019-06-08T11:14:53.665Z,11.63
2019-06-08T11:17:27.784Z,12.53
2019-06-08T11:20:00.451Z,13.72
2019-06-08T11:22:30.962Z,11.35
2019-06-08T11:25:04.412Z,11.00
2019-06-08T11:27:38.646Z,10.68
2019-06-08T11:30:17.376Z,12.25
2019-06-08T11:32:42.050Z,11.73
2019-06-08T11:35:13.627Z,12.03
2019-06-08T11:37:44.974Z,10.28
2019-06-08T11:40:20.619Z,11.05
2019-06-08T11:42:51.125Z,11.18
2019-06-08T11:45:22.780Z,10.50
2019-06-08T11:47:54.129Z,11.68
2019-06-08T11:50:42.097Z,10.70
2019-06-08T11:53:14.926Z,11.15
2019-06-08T11:55:50.743Z,17.17
2019-06-08T11:58:22.825Z,18.57
2019-06-08T12:01:04.610Z,19.17
2019-06-08T12:03:38.539Z,17.80
2019-06-08T12:06:11.966Z,19.42
2019-06-08T12:08:41.924Z,16.25
2019-06-08T12:11:18.419Z,15.45
2019-06-08T12:13:47.430Z,15.60
2019-06-08T12:16:22.184Z,16.85
2019-06-08T12:18:51.833Z,15.18
2019-06-08T12:21:23.201Z,15.35
2019-06-08T12:23:54.569Z,15.93
2019-06-08T12:26:26.094Z,16.50
2019-06-08T12:28:58.020Z,18.25
2019-06-08T12:31:30.710Z,15.35
2019-06-08T12:34:02.140Z,13.40
2019-06-08T12:36:33.547Z,14.93
2019-06-08T12:39:06.056Z,15.65
2019-06-08T12:41:38.072Z,14.50
2019-06-08T12:44:12.299Z,12.78
2019-06-08T12:46:42.732Z,8.75
2019-06-08T12:49:14.702Z,8.33
2019-06-08T12:51:50.640Z,10.30
2019-06-08T12:54:20.801Z,12.00
2019-06-08T12:56:52.230Z,18.20
2019-06-08T12:59:23.691Z,10.18
2019-06-08T13:01:55.110Z,13.32
2019-06-08T13:04:28.435Z,12.35
2019-06-08T13:06:59.553Z,12.37
2019-06-08T13:09:31.104Z,6.10
2019-06-08T13:12:03.162Z,6.12
2019-06-08T13:14:35.129Z,6.22
2019-06-08T13:17:08.756Z,8.38
2019-06-08T13:19:39.587Z,9.50
2019-06-08T13:22:10.970Z,6.05
2019-06-08T13:24:42.373Z,7.45
2019-06-08T13:27:15.421Z,9.68
2019-06-08T13:29:48.810Z,6.15
2019-06-08T13:32:21.841Z,6.87
2019-06-08T13:34:52.870Z,6.15
2019-06-08T13:37:24.826Z,7.55
2019-06-08T13:39:58.904Z,6.95
2019-06-08T13:42:29.202Z,7.22
2019-06-08T13:45:00.493Z,6.75
2019-06-08T13:47:31.847Z,7.67
2019-06-08T13:50:03.306Z,4.37
2019-06-08T13:52:34.767Z,7.95
2019-06-08T13:55:06.674Z,6.08
2019-06-08T13:57:38.164Z,4.90
2019-06-08T14:00:11.405Z,5.92
2019-06-08T14:02:42.811Z,6.08
2019-06-08T14:05:18.091Z,4.92
2019-06-08T14:07:49.172Z,4.33
2019-06-08T14:10:24.512Z,4.83
2019-06-08T14:12:58.683Z,4.15
2019-06-08T14:15:31.539Z,5.30
2019-06-08T14:18:02.866Z,5.60
2019-06-08T14:20:34.658Z,6.70
2019-06-08T14:23:08.728Z,3.77
2019-06-08T14:25:50.117Z,8.93
2019-06-08T14:28:12.187Z,6.53
2019-06-08T14:30:43.461Z,6.45
2019-06-08T14:33:14.905Z,5.40
2019-06-08T14:35:46.611Z,5.83
2019-06-08T14:38:20.292Z,5.08
2019-06-08T14:40:50.975Z,4.33
2019-06-08T14:43:23.002Z,4.62
2019-06-08T14:45:54.414Z,6.53
2019-06-08T14:48:31.665Z,3.80
2019-06-08T14:50:58.944Z,4.47
2019-06-08T14:53:30.316Z,3.17
2019-06-08T14:56:08.352Z,2.75
2019-06-08T14:58:35.229Z,3.10
2019-06-08T15:01:07.870Z,4.37
2019-06-08T15:03:39.578Z,4.05
2019-06-08T15:06:10.955Z,4.17
2019-06-08T15:08:42.424Z,5.92
2019-06-08T15:11:13.824Z,2.77
2019-06-08T15:13:45.281Z,4.08
2019-06-08T15:16:18.174Z,3.30
2019-06-08T15:18:49.657Z,4.62
2019-06-08T15:21:23.090Z,4.50
2019-06-08T15:23:54.042Z,4.87
2019-06-08T15:26:33.653Z,4.08
2019-06-08T15:28:58.786Z,5.80
2019-06-08T15:31:31.527Z,3.85
2019-06-08T15:34:04.524Z,4.37
2019-06-08T15:36:38.048Z,7.30
2019-06-08T15:39:09.024Z,5.80
2019-06-08T15:41:40.507Z,5.05
2019-06-08T15:44:11.866Z,3.90
2019-06-08T15:46:43.274Z,4.17
2019-06-08T15:49:14.845Z,3.75
2019-06-08T15:51:48.091Z,5.22
2019-06-08T15:54:19.181Z,5.10
2019-06-08T15:56:52.245Z,9.73
2019-06-08T15:59:24.812Z,7.58
2019-06-08T16:01:56.363Z,5.35
2019-06-08T16:04:27.841Z,8.53
2019-06-08T16:06:59.307Z,6.33
2019-06-08T16:09:32.065Z,5.87
2019-06-08T16:12:03.603Z,3.98
2019-06-08T16:14:35.115Z,7.25
2019-06-08T16:17:07.554Z,14.80
2019-06-08T16:19:38.911Z,5.30
2019-06-08T16:22:10.224Z,4.58
2019-06-08T16:24:41.611Z,5.25
2019-06-08T16:27:12.887Z,5.30
2019-06-08T16:29:44.377Z,4.25
2019-06-08T16:32:15.740Z,7.35
2019-06-08T16:34:47.126Z,7.08
2019-06-08T16:37:18.614Z,4.95
2019-06-08T16:39:50.062Z,4.62
2019-06-08T16:42:22.422Z,3.75
2019-06-08T16:44:53.891Z,5.03
2019-06-08T16:47:25.456Z,5.28
2019-06-08T16:49:56.810Z,4.15
2019-06-08T16:52:28.478Z,3.85
2019-06-08T16:54:59.961Z,5.37
2019-06-08T16:57:35.080Z,3.58
2019-06-08T17:00:30.078Z,3.47
2019-06-08T17:02:39.589Z,5.60
2019-06-08T17:05:11.194Z,3.50
2019-06-08T17:07:42.626Z,5.78
2019-06-08T17:10:14.223Z,3.25
2019-06-08T17:12:45.639Z,5.08
2019-06-08T17:15:18.258Z,3.75
2019-06-08T17:17:49.569Z,4.70
2019-06-08T17:20:21.059Z,5.65
2019-06-08T17:22:52.801Z,4.80
2019-06-08T17:25:24.193Z,6.03
2019-06-08T17:27:55.579Z,5.90
2019-06-08T17:30:26.959Z,5.03
2019-06-08T17:32:58.532Z,4.08
2019-06-08T17:35:29.866Z,4.40
2019-06-08T17:38:01.175Z,3.83
2019-06-08T17:40:33.837Z,4.37
2019-06-08T17:43:05.493Z,8.55
2019-06-08T17:45:36.820Z,5.75
2019-06-08T17:48:08.196Z,5.53
2019-06-08T17:50:40.768Z,3.92
2019-06-08T17:53:12.065Z,22.10
2019-06-08T17:55:43.944Z,6.87
2019-06-08T17:58:15.386Z,6.22
2019-06-08T18:00:47.077Z,6.03
2019-06-08T18:03:18.520Z,5.62
2019-06-08T18:05:49.869Z,2.80
2019-06-08T18:08:21.300Z,7.87
2019-06-08T18:10:52.791Z,5.10
2019-06-08T18:13:24.153Z,4.72
2019-06-08T18:15:57.601Z,5.53
2019-06-08T18:18:31.478Z,4.05
2019-06-08T18:21:02.861Z,4.12
2019-06-08T18:23:34.308Z,7.80
2019-06-08T18:26:07.756Z,3.92
2019-06-08T18:28:42.282Z,4.83
2019-06-08T18:31:13.058Z,5.20
2019-06-08T18:33:45.749Z,6.62
2019-06-08T18:36:17.529Z,4.78
2019-06-08T18:38:48.884Z,4.85
2019-06-08T18:41:20.255Z,5.15
2019-06-08T18:43:52.686Z,8.88
2019-06-08T18:46:24.237Z,5.85
2019-06-08T18:48:57.457Z,6.33
2019-06-08T18:51:28.463Z,6.50
2019-06-08T18:54:11.774Z,6.45
2019-06-08T18:56:32.903Z,8.23
2019-06-08T18:59:04.341Z,7.33
2019-06-08T19:01:37.909Z,4.45
2019-06-08T19:04:08.722Z,4.05
2019-06-08T19:06:41.216Z,5.22
2019-06-08T19:09:13.115Z,9.20
2019-06-08T19:11:45.447Z,8.25
2019-06-08T19:14:17.916Z,4.70
2019-06-08T19:16:54.480Z,6.37
2019-06-08T19:19:23.511Z,4.72
2019-06-08T19:21:54.889Z,4.17
2019-06-08T19:24:28.025Z,5.00
2019-06-08T19:26:59.588Z,7.92
2019-06-08T19:29:30.955Z,3.83
2019-06-08T19:32:02.307Z,9.33
2019-06-08T19:34:33.732Z,6.60
2019-06-08T19:37:05.141Z,6.92
2019-06-08T19:39:38.070Z,5.78
2019-06-08T19:42:09.661Z,8.08
2019-06-08T19:44:48.558Z,9.75
2019-06-08T19:47:14.144Z,9.20
2019-06-08T19:49:47.732Z,7.05
2019-06-08T19:52:18.575Z,7.40
2019-06-08T19:54:53.711Z,8.25
2019-06-08T19:57:23.029Z,8.05
2019-06-08T19:59:54.411Z,9.95
2019-06-08T20:02:27.162Z,12.13
2019-06-08T20:04:59.089Z,6.70
2019-06-08T20:07:30.482Z,10.08
2019-06-08T20:10:02.883Z,12.40
2019-06-08T20:12:37.184Z,12.70
2019-06-08T20:15:09.484Z,7.83
2019-06-08T20:17:41.625Z,8.70
2019-06-08T20:20:13.192Z,8.60
2019-06-08T20:22:45.923Z,9.15
2019-06-08T20:25:17.960Z,7.12
2019-06-08T20:27:51.561Z,8.33
2019-06-08T20:30:23.074Z,8.75
2019-06-08T20:32:54.753Z,8.60
2019-06-08T20:35:28.071Z,7.28
2019-06-08T20:37:59.259Z,7.45
2019-06-08T20:40:30.673Z,11.97
2019-06-08T20:57:01.678Z,8.40
2019-06-08T20:59:34.301Z,7.60
2019-06-08T21:02:08.406Z,12.63
2019-06-08T21:04:40.024Z,21.48
2019-06-08T21:07:11.532Z,17.05
2019-06-08T21:09:44.850Z,11.68
2019-06-08T21:12:17.775Z,8.60
2019-06-08T21:14:51.137Z,8.15
2019-06-08T21:17:22.366Z,8.00
2019-06-08T21:19:55.593Z,7.95
2019-06-08T21:22:29.457Z,11.75
2019-06-08T21:25:01.344Z,11.95
2019-06-08T21:27:33.209Z,11.50
2019-06-08T21:30:11.880Z,11.60
2019-06-08T21:32:39.178Z,10.35
2019-06-08T21:35:10.799Z,7.67
2019-06-08T21:37:42.122Z,10.15
2019-06-08T21:40:13.474Z,8.98
2019-06-08T21:42:47.583Z,7.47
2019-06-08T21:45:19.040Z,12.35
2019-06-08T21:47:51.741Z,9.30
2019-06-08T21:50:23.566Z,8.75
2019-06-08T21:52:56.773Z,9.20
2019-06-08T21:55:28.555Z,8.60
2019-06-08T21:58:01.979Z,10.55
2019-06-08T22:00:42.743Z,9.33
2019-06-08T22:03:09.647Z,8.63
2019-06-08T22:05:42.855Z,11.48
2019-06-08T22:08:14.611Z,8.68
2019-06-08T22:10:47.134Z,13.83
2019-06-08T22:13:18.617Z,10.28
2019-06-08T22:15:51.602Z,10.80
2019-06-08T22:18:24.475Z,9.80
2019-06-08T22:20:59.515Z,10.85
2019-06-08T22:23:30.244Z,9.50
2019-06-08T22:26:03.559Z,11.05
2019-06-08T22:28:37.571Z,10.03
2019-06-08T22:31:08.457Z,13.78
2019-06-08T22:33:39.938Z,12.58
2019-06-08T22:36:12.732Z,12.60
2019-06-08T22:38:44.259Z,14.68
2019-06-08T22:41:17.387Z,11.27
2019-06-08T22:43:49.048Z,12.95
2019-06-08T22:46:21.741Z,12.50
2019-06-08T22:48:54.663Z,12.20
2019-06-08T22:51:27.665Z,10.23
2019-06-08T22:54:02.015Z,13.62
2019-06-08T22:56:33.524Z,11.60
2019-06-08T22:59:08.469Z,13.00
2019-06-08T23:01:39.004Z,12.18
2019-06-08T23:04:11.372Z,12.93
2019-06-08T23:06:42.922Z,12.30
2019-06-08T23:09:14.558Z,12.30
2019-06-08T23:11:47.089Z,11.87
2019-06-08T23:14:19.090Z,14.17
2019-06-08T23:16:50.796Z,10.87
2019-06-08T23:19:22.383Z,13.90
2019-06-08T23:21:53.682Z,13.63
2019-06-08T23:24:27.445Z,12.37
2019-06-08T23:26:58.491Z,12.67
2019-06-08T23:29:29.889Z,12.43
2019-06-08T23:32:04.368Z,11.97
2019-06-08T23:34:38.341Z,11.37
2019-06-08T23:37:12.666Z,15.33
2019-06-08T23:39:43.311Z,10.13
2019-06-08T23:42:14.970Z,13.30
2019-06-08T23:44:47.994Z,10.60
2019-06-08T23:47:19.619Z,11.57
2019-06-08T23:49:51.850Z,12.53
2019-06-08T23:52:23.234Z,16.07
2019-06-08T23:54:58.230Z,13.80
2019-06-08T23:57:29.348Z,12.60
